Tina-c — 2APY2 — position and weather

sailwx.info

Track history (hours):
 
Tides and Currents Weather Stations Pressure Air Temp Water Temp Dewpoint Dewpoint Depression Visibility Wind Speed Wind Dir Waves Ship Positions

Tina-c

Last reported at 2018-May-23 21:44 UTC. Time now 2018-May-25 20:39 UTC.
Position N 35°58' W 005°38'.

Length 99 m; draft 6 m.

Type: Cargo ship. MMSI: 235061987.

Date/timePositionNaut miles runAvg speedWind from/ knotsBaromVisibWave heightAir tempDewpointWater temp
2018-May-23 21:44N 35°58' W 005°38'2 8.9
2018-May-23 21:30N 35°58' W 005°35'5 9.0
2018-May-23 21:00N 35°59' W 005°30'5 8.7
2018-May-23 20:29N 36°01' W 005°24'4 8.9
2018-May-23 20:00N 36°03' W 005°20'19310.0
2018-May-23 00:37N 37°03' W 001°31'511.0
2018-May-23 00:10N 37°07' W 001°27'411.0
2018-May-22 23:50N 37°10' W 001°24'  
2018-May-19 11:43N 37°33' W 000°59'310.8
2018-May-19 11:29N 37°31' W 000°57'511.5
2018-May-19 11:00N 37°31' W 000°50'611.5
2018-May-19 10:30N 37°31' W 000°43'611.2
2018-May-19 09:59N 37°31' W 000°36'511.0
2018-May-19 09:30N 37°31' W 000°29'510.7
2018-May-19 09:00N 37°32' W 000°23'510.8
2018-May-19 08:30N 37°34' W 000°16'  
Track history (hours):
 
Tides and Currents Weather Stations Pressure Air Temp Water Temp Dewpoint Dewpoint Depression Visibility Wind Speed Wind Dir Waves Ship Positions

Tina-c

Last reported at 2018-May-23 21:44 UTC. Time now 2018-May-25 20:39 UTC.
Position N 35°58' W 005°38'.

Length 99 m; draft 6 m.

Type: Cargo ship. MMSI: 235061987.

Date/timePositionNaut miles runAvg speedWind from/ knotsBaromVisibWave heightAir tempDewpointWater temp
2018-May-23 21:44N 35°58' W 005°38'2 8.9
2018-May-23 21:30N 35°58' W 005°35'5 9.0
2018-May-23 21:00N 35°59' W 005°30'5 8.7
2018-May-23 20:29N 36°01' W 005°24'4 8.9
2018-May-23 20:00N 36°03' W 005°20'19310.0
2018-May-23 00:37N 37°03' W 001°31'511.0
2018-May-23 00:10N 37°07' W 001°27'411.0
2018-May-22 23:50N 37°10' W 001°24'  
2018-May-19 11:43N 37°33' W 000°59'310.8
2018-May-19 11:29N 37°31' W 000°57'511.5
2018-May-19 11:00N 37°31' W 000°50'611.5
2018-May-19 10:30N 37°31' W 000°43'611.2
2018-May-19 09:59N 37°31' W 000°36'511.0
2018-May-19 09:30N 37°31' W 000°29'510.7
2018-May-19 09:00N 37°32' W 000°23'510.8
2018-May-19 08:30N 37°34' W 000°16'  

Dump ship's entire track history